sensor_id;sensor_type;location;lat;lon;timestamp;P1;durP1;ratioP1;P2;durP2;ratioP2
69369;SDS011;56530;42.640;23.372;2023-01-05T00:01:20;27.85;;;17.70;;
69369;SDS011;56530;42.640;23.372;2023-01-05T00:03:45;26.40;;;17.48;;
69369;SDS011;56530;42.640;23.372;2023-01-05T00:06:12;22.45;;;15.30;;
69369;SDS011;56530;42.640;23.372;2023-01-05T00:08:38;22.00;;;15.60;;
69369;SDS011;56530;42.640;23.372;2023-01-05T00:13:58;25.13;;;15.55;;
69369;SDS011;56530;42.640;23.372;2023-01-05T00:16:42;21.08;;;14.90;;
69369;SDS011;56530;42.640;23.372;2023-01-05T00:19:26;23.85;;;14.32;;
69369;SDS011;56530;42.640;23.372;2023-01-05T00:22:20;24.13;;;15.82;;
69369;SDS011;56530;42.640;23.372;2023-01-05T00:25:00;24.05;;;17.02;;
69369;SDS011;56530;42.640;23.372;2023-01-05T00:27:30;22.88;;;14.98;;
69369;SDS011;56530;42.640;23.372;2023-01-05T00:29:56;24.88;;;16.15;;
69369;SDS011;56530;42.640;23.372;2023-01-05T00:32:21;27.65;;;18.75;;
69369;SDS011;56530;42.640;23.372;2023-01-05T00:34:47;22.83;;;16.88;;
69369;SDS011;56530;42.640;23.372;2023-01-05T00:37:14;23.67;;;15.98;;
69369;SDS011;56530;42.640;23.372;2023-01-05T00:39:40;22.73;;;16.17;;
69369;SDS011;56530;42.640;23.372;2023-01-05T00:42:05;24.00;;;15.27;;
69369;SDS011;56530;42.640;23.372;2023-01-05T00:44:31;22.42;;;15.77;;
69369;SDS011;56530;42.640;23.372;2023-01-05T00:46:56;26.35;;;17.00;;
69369;SDS011;56530;42.640;23.372;2023-01-05T00:49:22;24.27;;;17.20;;
69369;SDS011;56530;42.640;23.372;2023-01-05T00:51:47;24.05;;;16.38;;
69369;SDS011;56530;42.640;23.372;2023-01-05T00:54:12;22.67;;;14.95;;
69369;SDS011;56530;42.640;23.372;2023-01-05T00:56:38;26.05;;;16.63;;
69369;SDS011;56530;42.640;23.372;2023-01-05T00:59:03;24.23;;;16.52;;
69369;SDS011;56530;42.640;23.372;2023-01-05T01:01:28;23.48;;;16.58;;
69369;SDS011;56530;42.640;23.372;2023-01-05T01:03:54;22.15;;;15.18;;
69369;SDS011;56530;42.640;23.372;2023-01-05T01:06:20;19.98;;;15.20;;
69369;SDS011;56530;42.640;23.372;2023-01-05T01:08:45;20.45;;;15.20;;
69369;SDS011;56530;42.640;23.372;2023-01-05T01:11:10;22.55;;;14.85;;
69369;SDS011;56530;42.640;23.372;2023-01-05T01:13:36;23.02;;;15.43;;
69369;SDS011;56530;42.640;23.372;2023-01-05T01:16:06;20.98;;;15.32;;
69369;SDS011;56530;42.640;23.372;2023-01-05T01:18:32;22.98;;;15.32;;
69369;SDS011;56530;42.640;23.372;2023-01-05T01:20:58;23.98;;;15.63;;
69369;SDS011;56530;42.640;23.372;2023-01-05T01:23:23;21.17;;;15.43;;
69369;SDS011;56530;42.640;23.372;2023-01-05T01:25:49;21.80;;;16.40;;
69369;SDS011;56530;42.640;23.372;2023-01-05T01:28:14;24.17;;;16.67;;
69369;SDS011;56530;42.640;23.372;2023-01-05T01:30:40;23.17;;;15.75;;
69369;SDS011;56530;42.640;23.372;2023-01-05T01:33:05;22.88;;;16.35;;
69369;SDS011;56530;42.640;23.372;2023-01-05T01:35:30;19.75;;;14.82;;
69369;SDS011;56530;42.640;23.372;2023-01-05T01:37:56;20.97;;;15.17;;
69369;SDS011;56530;42.640;23.372;2023-01-05T01:40:21;22.20;;;15.13;;
69369;SDS011;56530;42.640;23.372;2023-01-05T01:42:46;27.08;;;15.73;;
69369;SDS011;56530;42.640;23.372;2023-01-05T01:45:19;26.27;;;15.52;;
69369;SDS011;56530;42.640;23.372;2023-01-05T01:52:50;22.30;;;14.38;;
69369;SDS011;56530;42.640;23.372;2023-01-05T01:55:18;23.08;;;14.85;;
69369;SDS011;56530;42.640;23.372;2023-01-05T01:57:44;21.75;;;14.23;;
69369;SDS011;56530;42.640;23.372;2023-01-05T02:00:11;22.10;;;15.88;;
69369;SDS011;56530;42.640;23.372;2023-01-05T02:02:38;20.73;;;15.52;;
69369;SDS011;56530;42.640;23.372;2023-01-05T02:05:06;18.73;;;14.05;;
69369;SDS011;56530;42.640;23.372;2023-01-05T02:07:33;26.02;;;16.27;;
69369;SDS011;56530;42.640;23.372;2023-01-05T02:10:02;25.20;;;14.90;;
69369;SDS011;56530;42.640;23.372;2023-01-05T02:12:37;18.80;;;14.13;;
69369;SDS011;56530;42.640;23.372;2023-01-05T02:18:19;21.55;;;14.23;;
69369;SDS011;56530;42.640;23.372;2023-01-05T02:31:24;27.42;;;18.02;;
69369;SDS011;56530;42.640;23.372;2023-01-05T02:36:27;29.50;;;19.98;;
69369;SDS011;56530;42.640;23.372;2023-01-05T02:41:33;29.48;;;19.20;;
69369;SDS011;56530;42.640;23.372;2023-01-05T02:44:02;29.83;;;19.65;;
69369;SDS011;56530;42.640;23.372;2023-01-05T02:46:29;27.23;;;18.45;;
69369;SDS011;56530;42.640;23.372;2023-01-05T02:48:55;28.95;;;19.20;;
69369;SDS011;56530;42.640;23.372;2023-01-05T02:51:23;29.13;;;18.65;;
69369;SDS011;56530;42.640;23.372;2023-01-05T02:53:56;28.83;;;19.25;;
69369;SDS011;56530;42.640;23.372;2023-01-05T02:56:25;31.67;;;18.70;;
69369;SDS011;56530;42.640;23.372;2023-01-05T02:59:15;25.33;;;16.58;;
69369;SDS011;56530;42.640;23.372;2023-01-05T03:01:45;25.92;;;16.10;;
69369;SDS011;56530;42.640;23.372;2023-01-05T03:04:16;23.38;;;16.08;;
69369;SDS011;56530;42.640;23.372;2023-01-05T03:09:14;22.02;;;16.33;;
69369;SDS011;56530;42.640;23.372;2023-01-05T03:14:32;20.70;;;15.02;;
69369;SDS011;56530;42.640;23.372;2023-01-05T03:17:00;22.80;;;13.50;;
69369;SDS011;56530;42.640;23.372;2023-01-05T03:19:28;21.85;;;15.55;;
69369;SDS011;56530;42.640;23.372;2023-01-05T03:22:02;23.50;;;15.52;;
69369;SDS011;56530;42.640;23.372;2023-01-05T03:24:47;24.75;;;16.00;;
69369;SDS011;56530;42.640;23.372;2023-01-05T03:27:31;21.83;;;14.88;;
69369;SDS011;56530;42.640;23.372;2023-01-05T03:30:15;22.23;;;15.18;;
69369;SDS011;56530;42.640;23.372;2023-01-05T03:33:20;24.45;;;15.75;;
69369;SDS011;56530;42.640;23.372;2023-01-05T03:36:08;22.98;;;15.75;;
69369;SDS011;56530;42.640;23.372;2023-01-05T03:38:43;22.70;;;15.32;;
69369;SDS011;56530;42.640;23.372;2023-01-05T03:41:09;20.58;;;14.70;;
69369;SDS011;56530;42.640;23.372;2023-01-05T03:43:36;21.40;;;14.68;;
69369;SDS011;56530;42.640;23.372;2023-01-05T03:46:08;23.92;;;17.00;;
69369;SDS011;56530;42.640;23.372;2023-01-05T03:48:34;25.98;;;18.15;;
69369;SDS011;56530;42.640;23.372;2023-01-05T03:51:00;26.42;;;16.80;;
69369;SDS011;56530;42.640;23.372;2023-01-05T03:53:25;30.95;;;20.10;;
69369;SDS011;56530;42.640;23.372;2023-01-05T03:55:50;30.45;;;19.42;;
69369;SDS011;56530;42.640;23.372;2023-01-05T03:58:16;27.92;;;18.63;;
69369;SDS011;56530;42.640;23.372;2023-01-05T04:00:41;27.70;;;18.80;;
69369;SDS011;56530;42.640;23.372;2023-01-05T04:03:06;30.25;;;20.50;;
69369;SDS011;56530;42.640;23.372;2023-01-05T04:05:34;31.27;;;20.17;;
69369;SDS011;56530;42.640;23.372;2023-01-05T04:08:00;27.85;;;18.75;;
69369;SDS011;56530;42.640;23.372;2023-01-05T04:10:26;26.65;;;17.88;;
69369;SDS011;56530;42.640;23.372;2023-01-05T04:12:51;27.90;;;18.45;;
69369;SDS011;56530;42.640;23.372;2023-01-05T04:15:16;27.90;;;18.50;;
69369;SDS011;56530;42.640;23.372;2023-01-05T04:17:42;29.10;;;19.35;;
69369;SDS011;56530;42.640;23.372;2023-01-05T04:20:07;30.73;;;19.40;;
69369;SDS011;56530;42.640;23.372;2023-01-05T04:22:33;29.52;;;19.85;;
69369;SDS011;56530;42.640;23.372;2023-01-05T04:24:58;26.40;;;19.00;;
69369;SDS011;56530;42.640;23.372;2023-01-05T04:27:24;29.88;;;19.00;;
69369;SDS011;56530;42.640;23.372;2023-01-05T04:29:49;31.42;;;19.70;;
69369;SDS011;56530;42.640;23.372;2023-01-05T04:32:14;31.52;;;19.13;;
69369;SDS011;56530;42.640;23.372;2023-01-05T04:34:40;30.85;;;20.05;;
69369;SDS011;56530;42.640;23.372;2023-01-05T04:37:05;29.10;;;18.67;;
69369;SDS011;56530;42.640;23.372;2023-01-05T04:39:31;32.38;;;18.42;;
69369;SDS011;56530;42.640;23.372;2023-01-05T04:41:56;26.10;;;17.95;;
69369;SDS011;56530;42.640;23.372;2023-01-05T04:44:21;32.45;;;19.92;;
69369;SDS011;56530;42.640;23.372;2023-01-05T04:46:47;27.23;;;17.55;;
69369;SDS011;56530;42.640;23.372;2023-01-05T04:49:12;26.10;;;16.63;;
69369;SDS011;56530;42.640;23.372;2023-01-05T04:51:37;30.85;;;18.15;;
69369;SDS011;56530;42.640;23.372;2023-01-05T04:54:03;26.90;;;19.48;;
69369;SDS011;56530;42.640;23.372;2023-01-05T04:56:28;27.75;;;18.48;;
69369;SDS011;56530;42.640;23.372;2023-01-05T04:58:53;30.10;;;19.90;;
69369;SDS011;56530;42.640;23.372;2023-01-05T05:01:19;30.35;;;19.50;;
69369;SDS011;56530;42.640;23.372;2023-01-05T05:03:44;27.38;;;19.15;;
69369;SDS011;56530;42.640;23.372;2023-01-05T05:06:10;28.95;;;20.08;;
69369;SDS011;56530;42.640;23.372;2023-01-05T05:08:35;31.02;;;20.08;;
69369;SDS011;56530;42.640;23.372;2023-01-05T05:11:01;28.65;;;18.02;;
69369;SDS011;56530;42.640;23.372;2023-01-05T05:13:26;27.83;;;18.13;;
69369;SDS011;56530;42.640;23.372;2023-01-05T05:15:51;31.85;;;20.27;;
69369;SDS011;56530;42.640;23.372;2023-01-05T05:18:17;30.10;;;19.63;;
69369;SDS011;56530;42.640;23.372;2023-01-05T05:20:43;31.20;;;19.45;;
69369;SDS011;56530;42.640;23.372;2023-01-05T05:23:11;30.58;;;18.70;;
69369;SDS011;56530;42.640;23.372;2023-01-05T05:25:37;30.40;;;20.35;;
69369;SDS011;56530;42.640;23.372;2023-01-05T05:28:02;33.05;;;19.80;;
69369;SDS011;56530;42.640;23.372;2023-01-05T05:30:28;28.27;;;18.88;;
69369;SDS011;56530;42.640;23.372;2023-01-05T05:32:53;27.38;;;19.75;;
69369;SDS011;56530;42.640;23.372;2023-01-05T05:35:18;29.42;;;18.27;;
69369;SDS011;56530;42.640;23.372;2023-01-05T05:37:44;27.30;;;18.13;;
69369;SDS011;56530;42.640;23.372;2023-01-05T05:40:09;27.67;;;17.33;;
69369;SDS011;56530;42.640;23.372;2023-01-05T05:42:35;26.08;;;17.50;;
69369;SDS011;56530;42.640;23.372;2023-01-05T05:45:01;30.17;;;16.85;;
69369;SDS011;56530;42.640;23.372;2023-01-05T05:47:26;27.15;;;18.58;;
69369;SDS011;56530;42.640;23.372;2023-01-05T05:49:52;26.50;;;18.00;;
69369;SDS011;56530;42.640;23.372;2023-01-05T05:52:17;27.15;;;18.63;;
69369;SDS011;56530;42.640;23.372;2023-01-05T05:54:42;31.90;;;19.63;;
69369;SDS011;56530;42.640;23.372;2023-01-05T05:57:08;28.92;;;20.17;;
69369;SDS011;56530;42.640;23.372;2023-01-05T05:59:33;29.42;;;18.27;;
69369;SDS011;56530;42.640;23.372;2023-01-05T06:01:58;25.83;;;18.10;;
69369;SDS011;56530;42.640;23.372;2023-01-05T06:04:24;31.35;;;19.80;;
69369;SDS011;56530;42.640;23.372;2023-01-05T06:06:49;34.80;;;20.42;;
69369;SDS011;56530;42.640;23.372;2023-01-05T06:09:14;34.08;;;20.92;;
69369;SDS011;56530;42.640;23.372;2023-01-05T06:11:40;35.15;;;20.80;;
69369;SDS011;56530;42.640;23.372;2023-01-05T06:14:05;37.55;;;20.80;;
69369;SDS011;56530;42.640;23.372;2023-01-05T06:16:31;34.97;;;23.50;;
69369;SDS011;56530;42.640;23.372;2023-01-05T06:18:57;30.50;;;21.38;;
69369;SDS011;56530;42.640;23.372;2023-01-05T06:21:22;35.08;;;23.83;;
69369;SDS011;56530;42.640;23.372;2023-01-05T06:23:47;34.00;;;22.60;;
69369;SDS011;56530;42.640;23.372;2023-01-05T06:26:13;32.60;;;22.38;;
69369;SDS011;56530;42.640;23.372;2023-01-05T06:28:38;39.28;;;22.35;;
69369;SDS011;56530;42.640;23.372;2023-01-05T06:31:04;33.47;;;20.95;;
69369;SDS011;56530;42.640;23.372;2023-01-05T06:33:29;36.78;;;21.42;;
69369;SDS011;56530;42.640;23.372;2023-01-05T06:35:55;31.92;;;20.38;;
69369;SDS011;56530;42.640;23.372;2023-01-05T06:38:22;35.05;;;21.52;;
69369;SDS011;56530;42.640;23.372;2023-01-05T06:40:48;30.70;;;19.10;;
69369;SDS011;56530;42.640;23.372;2023-01-05T06:43:13;29.85;;;20.70;;
69369;SDS011;56530;42.640;23.372;2023-01-05T06:45:39;28.42;;;20.17;;
69369;SDS011;56530;42.640;23.372;2023-01-05T06:48:04;27.58;;;19.92;;
69369;SDS011;56530;42.640;23.372;2023-01-05T06:50:29;33.88;;;21.63;;
69369;SDS011;56530;42.640;23.372;2023-01-05T06:52:56;30.27;;;19.98;;
69369;SDS011;56530;42.640;23.372;2023-01-05T06:55:22;30.45;;;19.67;;
69369;SDS011;56530;42.640;23.372;2023-01-05T06:57:48;45.38;;;21.98;;
69369;SDS011;56530;42.640;23.372;2023-01-05T07:00:14;23.63;;;17.38;;
69369;SDS011;56530;42.640;23.372;2023-01-05T07:02:40;26.60;;;17.73;;
69369;SDS011;56530;42.640;23.372;2023-01-05T07:05:06;24.40;;;18.95;;
69369;SDS011;56530;42.640;23.372;2023-01-05T07:07:32;28.85;;;18.25;;
69369;SDS011;56530;42.640;23.372;2023-01-05T07:09:57;23.17;;;17.35;;
69369;SDS011;56530;42.640;23.372;2023-01-05T07:12:22;28.08;;;20.20;;
69369;SDS011;56530;42.640;23.372;2023-01-05T07:14:48;26.05;;;18.77;;
69369;SDS011;56530;42.640;23.372;2023-01-05T07:17:13;30.33;;;21.30;;
69369;SDS011;56530;42.640;23.372;2023-01-05T07:19:39;27.63;;;20.83;;
69369;SDS011;56530;42.640;23.372;2023-01-05T07:22:04;25.83;;;18.67;;
69369;SDS011;56530;42.640;23.372;2023-01-05T07:24:30;26.35;;;18.10;;
69369;SDS011;56530;42.640;23.372;2023-01-05T07:26:57;28.67;;;19.50;;
69369;SDS011;56530;42.640;23.372;2023-01-05T07:29:23;27.42;;;19.85;;
69369;SDS011;56530;42.640;23.372;2023-01-05T07:31:48;30.83;;;19.73;;
69369;SDS011;56530;42.640;23.372;2023-01-05T07:34:16;27.00;;;19.13;;
69369;SDS011;56530;42.640;23.372;2023-01-05T07:36:45;33.30;;;21.27;;
69369;SDS011;56530;42.640;23.372;2023-01-05T07:39:10;29.52;;;18.17;;
69369;SDS011;56530;42.640;23.372;2023-01-05T07:41:36;26.25;;;18.58;;
69369;SDS011;56530;42.640;23.372;2023-01-05T07:44:01;23.90;;;17.02;;
69369;SDS011;56530;42.640;23.372;2023-01-05T07:46:26;20.48;;;15.90;;
69369;SDS011;56530;42.640;23.372;2023-01-05T07:48:52;30.00;;;20.80;;
69369;SDS011;56530;42.640;23.372;2023-01-05T07:51:17;27.27;;;20.25;;
69369;SDS011;56530;42.640;23.372;2023-01-05T07:53:43;29.13;;;20.38;;
69369;SDS011;56530;42.640;23.372;2023-01-05T07:56:08;28.02;;;19.17;;
69369;SDS011;56530;42.640;23.372;2023-01-05T07:58:34;31.08;;;18.90;;
69369;SDS011;56530;42.640;23.372;2023-01-05T08:01:03;26.63;;;18.30;;
69369;SDS011;56530;42.640;23.372;2023-01-05T08:03:29;26.60;;;18.88;;
69369;SDS011;56530;42.640;23.372;2023-01-05T08:05:55;27.17;;;18.13;;
69369;SDS011;56530;42.640;23.372;2023-01-05T08:08:20;28.35;;;18.38;;
69369;SDS011;56530;42.640;23.372;2023-01-05T08:10:46;23.70;;;16.20;;
69369;SDS011;56530;42.640;23.372;2023-01-05T08:13:14;29.65;;;17.70;;
69369;SDS011;56530;42.640;23.372;2023-01-05T08:15:57;24.83;;;17.70;;
69369;SDS011;56530;42.640;23.372;2023-01-05T08:18:24;26.95;;;17.30;;
69369;SDS011;56530;42.640;23.372;2023-01-05T08:20:51;23.33;;;17.27;;
69369;SDS011;56530;42.640;23.372;2023-01-05T08:23:17;24.90;;;17.05;;
69369;SDS011;56530;42.640;23.372;2023-01-05T08:25:43;24.02;;;16.05;;
69369;SDS011;56530;42.640;23.372;2023-01-05T08:28:08;25.92;;;18.13;;
69369;SDS011;56530;42.640;23.372;2023-01-05T08:30:33;26.17;;;18.58;;
69369;SDS011;56530;42.640;23.372;2023-01-05T08:32:59;28.65;;;19.23;;
69369;SDS011;56530;42.640;23.372;2023-01-05T08:35:24;34.70;;;22.63;;
69369;SDS011;56530;42.640;23.372;2023-01-05T08:37:49;35.47;;;21.45;;
69369;SDS011;56530;42.640;23.372;2023-01-05T08:40:15;36.60;;;21.73;;
69369;SDS011;56530;42.640;23.372;2023-01-05T08:42:40;31.73;;;20.48;;
69369;SDS011;56530;42.640;23.372;2023-01-05T08:45:06;33.70;;;21.60;;
69369;SDS011;56530;42.640;23.372;2023-01-05T08:47:31;37.90;;;20.67;;
69369;SDS011;56530;42.640;23.372;2023-01-05T08:49:57;45.22;;;22.50;;
69369;SDS011;56530;42.640;23.372;2023-01-05T08:52:22;33.55;;;21.95;;
69369;SDS011;56530;42.640;23.372;2023-01-05T08:54:48;36.33;;;22.80;;
69369;SDS011;56530;42.640;23.372;2023-01-05T08:57:13;35.80;;;23.02;;
69369;SDS011;56530;42.640;23.372;2023-01-05T08:59:39;32.50;;;20.85;;
69369;SDS011;56530;42.640;23.372;2023-01-05T09:02:05;33.88;;;22.35;;
69369;SDS011;56530;42.640;23.372;2023-01-05T09:04:30;32.58;;;22.88;;
69369;SDS011;56530;42.640;23.372;2023-01-05T09:06:56;29.88;;;21.17;;
69369;SDS011;56530;42.640;23.372;2023-01-05T09:09:21;36.15;;;21.77;;
69369;SDS011;56530;42.640;23.372;2023-01-05T09:11:48;25.48;;;19.08;;
69369;SDS011;56530;42.640;23.372;2023-01-05T09:14:14;22.48;;;16.70;;
69369;SDS011;56530;42.640;23.372;2023-01-05T09:16:39;21.88;;;17.33;;
69369;SDS011;56530;42.640;23.372;2023-01-05T09:19:05;28.63;;;19.25;;
69369;SDS011;56530;42.640;23.372;2023-01-05T09:21:30;28.35;;;17.98;;
69369;SDS011;56530;42.640;23.372;2023-01-05T09:23:56;25.27;;;18.25;;
69369;SDS011;56530;42.640;23.372;2023-01-05T09:26:21;27.75;;;17.15;;
69369;SDS011;56530;42.640;23.372;2023-01-05T09:28:47;30.48;;;18.73;;
69369;SDS011;56530;42.640;23.372;2023-01-05T09:31:13;25.77;;;17.23;;
69369;SDS011;56530;42.640;23.372;2023-01-05T09:33:41;25.40;;;16.02;;
69369;SDS011;56530;42.640;23.372;2023-01-05T09:36:07;23.42;;;15.48;;
69369;SDS011;56530;42.640;23.372;2023-01-05T09:38:33;27.02;;;14.80;;
69369;SDS011;56530;42.640;23.372;2023-01-05T09:41:01;18.92;;;12.25;;
69369;SDS011;56530;42.640;23.372;2023-01-05T09:43:31;21.45;;;15.30;;
69369;SDS011;56530;42.640;23.372;2023-01-05T09:46:00;21.33;;;16.02;;
69369;SDS011;56530;42.640;23.372;2023-01-05T09:48:27;18.77;;;14.52;;
69369;SDS011;56530;42.640;23.372;2023-01-05T09:50:55;22.92;;;14.52;;
69369;SDS011;56530;42.640;23.372;2023-01-05T09:53:27;22.20;;;13.88;;
69369;SDS011;56530;42.640;23.372;2023-01-05T09:55:54;25.17;;;15.30;;
69369;SDS011;56530;42.640;23.372;2023-01-05T09:58:20;22.95;;;15.20;;
69369;SDS011;56530;42.640;23.372;2023-01-05T10:03:26;21.88;;;13.85;;
69369;SDS011;56530;42.640;23.372;2023-01-05T10:05:51;19.90;;;14.95;;
69369;SDS011;56530;42.640;23.372;2023-01-05T10:08:18;19.38;;;15.23;;
69369;SDS011;56530;42.640;23.372;2023-01-05T10:10:55;21.98;;;14.75;;
69369;SDS011;56530;42.640;23.372;2023-01-05T10:13:59;25.45;;;14.85;;
69369;SDS011;56530;42.640;23.372;2023-01-05T10:16:28;25.83;;;15.95;;
69369;SDS011;56530;42.640;23.372;2023-01-05T10:18:54;23.80;;;15.88;;
69369;SDS011;56530;42.640;23.372;2023-01-05T10:26:49;28.25;;;17.33;;
69369;SDS011;56530;42.640;23.372;2023-01-05T10:29:46;30.27;;;18.13;;
69369;SDS011;56530;42.640;23.372;2023-01-05T10:45:13;22.80;;;18.27;;
69369;SDS011;56530;42.640;23.372;2023-01-05T10:47:39;27.23;;;17.38;;
69369;SDS011;56530;42.640;23.372;2023-01-05T10:50:17;30.92;;;17.63;;
69369;SDS011;56530;42.640;23.372;2023-01-05T10:53:01;28.88;;;19.08;;
69369;SDS011;56530;42.640;23.372;2023-01-05T11:00:54;31.25;;;18.95;;
69369;SDS011;56530;42.640;23.372;2023-01-05T11:03:24;24.55;;;16.98;;
69369;SDS011;56530;42.640;23.372;2023-01-05T11:05:52;25.35;;;17.58;;
69369;SDS011;56530;42.640;23.372;2023-01-05T11:08:19;24.55;;;17.23;;
69369;SDS011;56530;42.640;23.372;2023-01-05T11:10:50;25.30;;;17.70;;
69369;SDS011;56530;42.640;23.372;2023-01-05T11:16:08;25.50;;;16.92;;
69369;SDS011;56530;42.640;23.372;2023-01-05T11:21:16;27.33;;;18.40;;
69369;SDS011;56530;42.640;23.372;2023-01-05T11:23:46;25.88;;;16.77;;
69369;SDS011;56530;42.640;23.372;2023-01-05T11:34:25;24.60;;;16.35;;
69369;SDS011;56530;42.640;23.372;2023-01-05T11:36:58;27.35;;;16.15;;
69369;SDS011;56530;42.640;23.372;2023-01-05T11:39:28;24.23;;;16.88;;
69369;SDS011;56530;42.640;23.372;2023-01-05T11:47:36;27.67;;;16.85;;
69369;SDS011;56530;42.640;23.372;2023-01-05T11:52:41;26.33;;;15.82;;
69369;SDS011;56530;42.640;23.372;2023-01-05T12:03:55;21.35;;;16.42;;
69369;SDS011;56530;42.640;23.372;2023-01-05T12:09:00;30.73;;;17.55;;
69369;SDS011;56530;42.640;23.372;2023-01-05T12:11:42;22.98;;;16.48;;
69369;SDS011;56530;42.640;23.372;2023-01-05T12:23:17;26.77;;;17.13;;
69369;SDS011;56530;42.640;23.372;2023-01-05T12:31:55;24.27;;;16.80;;
69369;SDS011;56530;42.640;23.372;2023-01-05T12:39:54;22.15;;;15.43;;
69369;SDS011;56530;42.640;23.372;2023-01-05T12:50:48;19.55;;;12.60;;
69369;SDS011;56530;42.640;23.372;2023-01-05T12:53:32;23.98;;;13.02;;
69369;SDS011;56530;42.640;23.372;2023-01-05T12:56:01;16.05;;;12.18;;
69369;SDS011;56530;42.640;23.372;2023-01-05T12:58:37;22.60;;;13.48;;
69369;SDS011;56530;42.640;23.372;2023-01-05T13:01:06;25.63;;;12.13;;
69369;SDS011;56530;42.640;23.372;2023-01-05T13:03:42;21.70;;;13.35;;
69369;SDS011;56530;42.640;23.372;2023-01-05T13:06:32;23.80;;;13.30;;
69369;SDS011;56530;42.640;23.372;2023-01-05T13:09:11;23.17;;;13.30;;
69369;SDS011;56530;42.640;23.372;2023-01-05T13:11:47;22.10;;;14.45;;
69369;SDS011;56530;42.640;23.372;2023-01-05T13:14:19;17.67;;;13.25;;
69369;SDS011;56530;42.640;23.372;2023-01-05T13:16:50;25.17;;;13.80;;
69369;SDS011;56530;42.640;23.372;2023-01-05T13:19:19;18.88;;;13.02;;
69369;SDS011;56530;42.640;23.372;2023-01-05T13:21:48;20.77;;;12.55;;
69369;SDS011;56530;42.640;23.372;2023-01-05T13:24:26;22.40;;;14.23;;
69369;SDS011;56530;42.640;23.372;2023-01-05T13:26:57;18.83;;;13.32;;
69369;SDS011;56530;42.640;23.372;2023-01-05T13:29:24;21.20;;;13.40;;
69369;SDS011;56530;42.640;23.372;2023-01-05T13:32:00;20.40;;;14.75;;
69369;SDS011;56530;42.640;23.372;2023-01-05T13:34:54;22.85;;;14.63;;
69369;SDS011;56530;42.640;23.372;2023-01-05T13:51:18;20.77;;;12.20;;
69369;SDS011;56530;42.640;23.372;2023-01-05T13:54:00;19.73;;;11.88;;
69369;SDS011;56530;42.640;23.372;2023-01-05T13:56:28;24.30;;;13.57;;
69369;SDS011;56530;42.640;23.372;2023-01-05T13:59:01;23.55;;;13.65;;
69369;SDS011;56530;42.640;23.372;2023-01-05T14:01:39;26.75;;;16.02;;
69369;SDS011;56530;42.640;23.372;2023-01-05T14:04:14;26.35;;;18.15;;
69369;SDS011;56530;42.640;23.372;2023-01-05T14:06:43;36.35;;;17.65;;
69369;SDS011;56530;42.640;23.372;2023-01-05T14:09:14;31.48;;;16.83;;
69369;SDS011;56530;42.640;23.372;2023-01-05T14:30:42;27.67;;;14.77;;
69369;SDS011;56530;42.640;23.372;2023-01-05T14:33:08;21.13;;;14.55;;
69369;SDS011;56530;42.640;23.372;2023-01-05T14:35:34;20.85;;;13.68;;
69369;SDS011;56530;42.640;23.372;2023-01-05T14:38:33;24.00;;;14.52;;
69369;SDS011;56530;42.640;23.372;2023-01-05T14:40:52;24.08;;;15.50;;
69369;SDS011;56530;42.640;23.372;2023-01-05T14:43:26;20.95;;;13.38;;
69369;SDS011;56530;42.640;23.372;2023-01-05T14:46:10;21.35;;;14.50;;
69369;SDS011;56530;42.640;23.372;2023-01-05T14:51:15;19.88;;;12.75;;
69369;SDS011;56530;42.640;23.372;2023-01-05T14:53:46;20.23;;;13.63;;
69369;SDS011;56530;42.640;23.372;2023-01-05T14:56:17;22.33;;;13.27;;
69369;SDS011;56530;42.640;23.372;2023-01-05T15:03:45;18.35;;;13.88;;
69369;SDS011;56530;42.640;23.372;2023-01-05T15:06:16;17.50;;;12.60;;
69369;SDS011;56530;42.640;23.372;2023-01-05T15:25:34;33.30;;;14.60;;
69369;SDS011;56530;42.640;23.372;2023-01-05T15:31:22;23.25;;;13.30;;
69369;SDS011;56530;42.640;23.372;2023-01-05T15:34:03;21.33;;;14.82;;
69369;SDS011;56530;42.640;23.372;2023-01-05T15:36:42;26.38;;;13.80;;
69369;SDS011;56530;42.640;23.372;2023-01-05T15:39:23;35.97;;;14.30;;
69369;SDS011;56530;42.640;23.372;2023-01-05T15:41:57;26.00;;;14.98;;
69369;SDS011;56530;42.640;23.372;2023-01-05T15:44:33;23.88;;;14.82;;
69369;SDS011;56530;42.640;23.372;2023-01-05T15:47:01;20.80;;;14.30;;
69369;SDS011;56530;42.640;23.372;2023-01-05T15:49:29;31.20;;;15.70;;
69369;SDS011;56530;42.640;23.372;2023-01-05T15:51:55;28.60;;;16.05;;
69369;SDS011;56530;42.640;23.372;2023-01-05T15:54:22;33.22;;;14.98;;
69369;SDS011;56530;42.640;23.372;2023-01-05T15:56:49;30.30;;;16.90;;
69369;SDS011;56530;42.640;23.372;2023-01-05T15:59:31;19.70;;;14.13;;
69369;SDS011;56530;42.640;23.372;2023-01-05T16:02:00;21.50;;;14.38;;
69369;SDS011;56530;42.640;23.372;2023-01-05T16:04:25;23.48;;;14.02;;
69369;SDS011;56530;42.640;23.372;2023-01-05T16:07:09;25.73;;;15.57;;
69369;SDS011;56530;42.640;23.372;2023-01-05T16:09:37;24.30;;;14.85;;
69369;SDS011;56530;42.640;23.372;2023-01-05T16:12:05;23.65;;;13.75;;
69369;SDS011;56530;42.640;23.372;2023-01-05T16:14:37;25.77;;;14.25;;
69369;SDS011;56530;42.640;23.372;2023-01-05T16:17:17;20.00;;;14.10;;
69369;SDS011;56530;42.640;23.372;2023-01-05T16:25:25;22.35;;;14.43;;
69369;SDS011;56530;42.640;23.372;2023-01-05T16:28:02;25.50;;;14.77;;
69369;SDS011;56530;42.640;23.372;2023-01-05T16:30:41;19.35;;;13.18;;
69369;SDS011;56530;42.640;23.372;2023-01-05T16:45:42;22.25;;;14.65;;
69369;SDS011;56530;42.640;23.372;2023-01-05T16:51:05;23.15;;;14.57;;
69369;SDS011;56530;42.640;23.372;2023-01-05T16:53:32;19.83;;;13.25;;
69369;SDS011;56530;42.640;23.372;2023-01-05T16:55:58;25.23;;;13.13;;
69369;SDS011;56530;42.640;23.372;2023-01-05T17:00:52;34.55;;;15.50;;
69369;SDS011;56530;42.640;23.372;2023-01-05T17:05:51;28.48;;;14.55;;
69369;SDS011;56530;42.640;23.372;2023-01-05T17:08:21;26.45;;;13.82;;
69369;SDS011;56530;42.640;23.372;2023-01-05T17:10:48;23.30;;;15.60;;
69369;SDS011;56530;42.640;23.372;2023-01-05T17:13:15;26.48;;;13.82;;
69369;SDS011;56530;42.640;23.372;2023-01-05T17:15:44;27.38;;;14.80;;
69369;SDS011;56530;42.640;23.372;2023-01-05T17:18:18;29.58;;;15.00;;
69369;SDS011;56530;42.640;23.372;2023-01-05T17:20:51;22.60;;;15.38;;
69369;SDS011;56530;42.640;23.372;2023-01-05T17:23:22;26.30;;;16.58;;
69369;SDS011;56530;42.640;23.372;2023-01-05T17:25:52;37.30;;;16.90;;
69369;SDS011;56530;42.640;23.372;2023-01-05T17:28:21;28.92;;;16.65;;
69369;SDS011;56530;42.640;23.372;2023-01-05T17:30:48;31.08;;;15.90;;
69369;SDS011;56530;42.640;23.372;2023-01-05T17:33:14;26.98;;;16.73;;
69369;SDS011;56530;42.640;23.372;2023-01-05T17:35:39;31.77;;;15.70;;
69369;SDS011;56530;42.640;23.372;2023-01-05T17:38:04;27.60;;;15.52;;
69369;SDS011;56530;42.640;23.372;2023-01-05T17:40:30;31.02;;;16.42;;
69369;SDS011;56530;42.640;23.372;2023-01-05T17:42:55;31.67;;;18.60;;
69369;SDS011;56530;42.640;23.372;2023-01-05T17:45:21;23.23;;;14.82;;